sensor_id;sensor_type;location;lat;lon;timestamp;P1;durP1;ratioP1;P2;durP2;ratioP2
13171;SDS011;6651;53.200;10.432;2023-08-01T00:00:39;3.25;;;2.95;;
13171;SDS011;6651;53.200;10.432;2023-08-01T00:03:04;4.05;;;2.88;;
13171;SDS011;6651;53.200;10.432;2023-08-01T00:05:30;3.88;;;2.70;;
13171;SDS011;6651;53.200;10.432;2023-08-01T00:07:56;3.45;;;3.03;;
13171;SDS011;6651;53.200;10.432;2023-08-01T00:10:21;2.85;;;2.65;;
13171;SDS011;6651;53.200;10.432;2023-08-01T00:12:47;3.35;;;2.90;;
13171;SDS011;6651;53.200;10.432;2023-08-01T00:15:13;2.88;;;2.67;;
13171;SDS011;6651;53.200;10.432;2023-08-01T00:17:38;3.33;;;2.78;;
13171;SDS011;6651;53.200;10.432;2023-08-01T00:20:04;3.40;;;2.90;;
13171;SDS011;6651;53.200;10.432;2023-08-01T00:22:31;3.78;;;2.80;;
13171;SDS011;6651;53.200;10.432;2023-08-01T00:24:57;2.80;;;2.60;;
13171;SDS011;6651;53.200;10.432;2023-08-01T00:27:23;3.30;;;2.80;;
13171;SDS011;6651;53.200;10.432;2023-08-01T00:29:49;3.08;;;2.63;;
13171;SDS011;6651;53.200;10.432;2023-08-01T00:32:15;3.35;;;2.80;;
13171;SDS011;6651;53.200;10.432;2023-08-01T00:34:40;2.97;;;2.72;;
13171;SDS011;6651;53.200;10.432;2023-08-01T00:37:06;3.20;;;2.85;;
13171;SDS011;6651;53.200;10.432;2023-08-01T00:39:31;3.50;;;2.80;;
13171;SDS011;6651;53.200;10.432;2023-08-01T00:41:57;4.13;;;3.00;;
13171;SDS011;6651;53.200;10.432;2023-08-01T00:44:23;3.05;;;2.75;;
13171;SDS011;6651;53.200;10.432;2023-08-01T00:46:49;3.60;;;3.30;;
13171;SDS011;6651;53.200;10.432;2023-08-01T00:49:15;3.20;;;2.90;;
13171;SDS011;6651;53.200;10.432;2023-08-01T00:51:41;4.05;;;3.17;;
13171;SDS011;6651;53.200;10.432;2023-08-01T00:54:08;3.28;;;2.97;;
13171;SDS011;6651;53.200;10.432;2023-08-01T00:56:34;3.42;;;3.08;;
13171;SDS011;6651;53.200;10.432;2023-08-01T00:59:00;3.70;;;3.30;;
13171;SDS011;6651;53.200;10.432;2023-08-01T01:01:26;3.60;;;3.10;;
13171;SDS011;6651;53.200;10.432;2023-08-01T01:03:51;3.95;;;2.90;;
13171;SDS011;6651;53.200;10.432;2023-08-01T01:08:51;4.20;;;3.20;;
13171;SDS011;6651;53.200;10.432;2023-08-01T01:11:18;3.80;;;3.30;;
13171;SDS011;6651;53.200;10.432;2023-08-01T01:13:44;5.50;;;3.40;;
13171;SDS011;6651;53.200;10.432;2023-08-01T01:16:09;5.13;;;3.30;;
13171;SDS011;6651;53.200;10.432;2023-08-01T01:18:35;3.90;;;3.40;;
13171;SDS011;6651;53.200;10.432;2023-08-01T01:21:01;4.72;;;3.10;;
13171;SDS011;6651;53.200;10.432;2023-08-01T01:23:26;5.72;;;3.47;;
13171;SDS011;6651;53.200;10.432;2023-08-01T01:25:53;4.43;;;3.38;;
13171;SDS011;6651;53.200;10.432;2023-08-01T01:28:21;4.90;;;3.30;;
13171;SDS011;6651;53.200;10.432;2023-08-01T01:30:47;3.63;;;2.83;;
13171;SDS011;6651;53.200;10.432;2023-08-01T01:33:14;4.25;;;3.00;;
13171;SDS011;6651;53.200;10.432;2023-08-01T01:35:41;3.67;;;3.30;;
13171;SDS011;6651;53.200;10.432;2023-08-01T01:38:06;5.18;;;3.28;;
13171;SDS011;6651;53.200;10.432;2023-08-01T01:40:33;3.60;;;3.00;;
13171;SDS011;6651;53.200;10.432;2023-08-01T01:42:59;3.50;;;3.20;;
13171;SDS011;6651;53.200;10.432;2023-08-01T01:45:25;3.97;;;2.97;;
13171;SDS011;6651;53.200;10.432;2023-08-01T01:47:52;3.75;;;3.25;;
13171;SDS011;6651;53.200;10.432;2023-08-01T01:50:17;4.90;;;3.20;;
13171;SDS011;6651;53.200;10.432;2023-08-01T01:52:43;4.95;;;3.30;;
13171;SDS011;6651;53.200;10.432;2023-08-01T01:55:10;3.53;;;3.08;;
13171;SDS011;6651;53.200;10.432;2023-08-01T01:57:36;3.80;;;3.10;;
13171;SDS011;6651;53.200;10.432;2023-08-01T02:00:05;4.30;;;3.08;;
13171;SDS011;6651;53.200;10.432;2023-08-01T02:02:31;3.97;;;3.20;;
13171;SDS011;6651;53.200;10.432;2023-08-01T02:04:56;3.40;;;3.10;;
13171;SDS011;6651;53.200;10.432;2023-08-01T02:07:22;3.40;;;3.10;;
13171;SDS011;6651;53.200;10.432;2023-08-01T02:09:48;3.50;;;3.20;;
13171;SDS011;6651;53.200;10.432;2023-08-01T02:12:14;4.57;;;3.03;;
13171;SDS011;6651;53.200;10.432;2023-08-01T02:14:40;3.42;;;3.08;;
13171;SDS011;6651;53.200;10.432;2023-08-01T02:17:06;3.42;;;3.13;;
13171;SDS011;6651;53.200;10.432;2023-08-01T02:19:32;3.72;;;3.28;;
13171;SDS011;6651;53.200;10.432;2023-08-01T02:21:58;3.50;;;3.20;;
13171;SDS011;6651;53.200;10.432;2023-08-01T02:24:24;5.28;;;3.33;;
13171;SDS011;6651;53.200;10.432;2023-08-01T02:26:50;3.97;;;3.20;;
13171;SDS011;6651;53.200;10.432;2023-08-01T02:29:16;3.75;;;3.45;;
13171;SDS011;6651;53.200;10.432;2023-08-01T02:31:42;4.13;;;3.40;;
13171;SDS011;6651;53.200;10.432;2023-08-01T02:34:09;4.00;;;3.42;;
13171;SDS011;6651;53.200;10.432;2023-08-01T02:36:34;4.20;;;3.45;;
13171;SDS011;6651;53.200;10.432;2023-08-01T02:39:00;3.70;;;3.40;;
13171;SDS011;6651;53.200;10.432;2023-08-01T02:41:25;4.47;;;3.47;;
13171;SDS011;6651;53.200;10.432;2023-08-01T02:43:51;4.50;;;4.10;;
13171;SDS011;6651;53.200;10.432;2023-08-01T02:46:17;4.05;;;3.60;;
13171;SDS011;6651;53.200;10.432;2023-08-01T02:48:43;5.15;;;3.60;;
13171;SDS011;6651;53.200;10.432;2023-08-01T02:51:08;4.55;;;3.22;;
13171;SDS011;6651;53.200;10.432;2023-08-01T02:53:35;3.95;;;3.15;;
13171;SDS011;6651;53.200;10.432;2023-08-01T02:56:01;5.10;;;3.50;;
13171;SDS011;6651;53.200;10.432;2023-08-01T02:58:28;3.65;;;3.30;;
13171;SDS011;6651;53.200;10.432;2023-08-01T03:00:53;3.88;;;3.55;;
13171;SDS011;6651;53.200;10.432;2023-08-01T03:03:19;4.68;;;3.47;;
13171;SDS011;6651;53.200;10.432;2023-08-01T03:05:45;5.35;;;3.50;;
13171;SDS011;6651;53.200;10.432;2023-08-01T03:08:10;4.53;;;3.40;;
13171;SDS011;6651;53.200;10.432;2023-08-01T03:10:36;4.13;;;3.72;;
13171;SDS011;6651;53.200;10.432;2023-08-01T03:13:01;5.38;;;3.20;;
13171;SDS011;6651;53.200;10.432;2023-08-01T03:15:27;6.32;;;3.70;;
13171;SDS011;6651;53.200;10.432;2023-08-01T03:17:53;3.65;;;3.35;;
13171;SDS011;6651;53.200;10.432;2023-08-01T03:20:19;6.10;;;3.80;;
13171;SDS011;6651;53.200;10.432;2023-08-01T03:22:44;4.35;;;3.50;;
13171;SDS011;6651;53.200;10.432;2023-08-01T03:25:10;4.07;;;3.00;;
13171;SDS011;6651;53.200;10.432;2023-08-01T03:27:36;3.78;;;3.33;;
13171;SDS011;6651;53.200;10.432;2023-08-01T03:30:02;3.63;;;3.33;;
13171;SDS011;6651;53.200;10.432;2023-08-01T03:32:29;4.20;;;3.20;;
13171;SDS011;6651;53.200;10.432;2023-08-01T03:34:55;3.78;;;3.47;;
13171;SDS011;6651;53.200;10.432;2023-08-01T03:37:21;5.55;;;3.28;;
13171;SDS011;6651;53.200;10.432;2023-08-01T03:39:46;4.85;;;3.30;;
13171;SDS011;6651;53.200;10.432;2023-08-01T03:42:12;5.72;;;3.50;;
13171;SDS011;6651;53.200;10.432;2023-08-01T03:44:38;4.13;;;2.85;;
13171;SDS011;6651;53.200;10.432;2023-08-01T03:47:03;3.75;;;3.15;;
13171;SDS011;6651;53.200;10.432;2023-08-01T03:49:29;3.40;;;3.10;;
13171;SDS011;6651;53.200;10.432;2023-08-01T03:51:55;4.97;;;3.45;;
13171;SDS011;6651;53.200;10.432;2023-08-01T03:54:20;3.83;;;3.22;;
13171;SDS011;6651;53.200;10.432;2023-08-01T03:56:46;3.33;;;3.03;;
13171;SDS011;6651;53.200;10.432;2023-08-01T03:59:12;5.90;;;3.38;;
13171;SDS011;6651;53.200;10.432;2023-08-01T04:01:39;4.10;;;3.28;;
13171;SDS011;6651;53.200;10.432;2023-08-01T04:04:06;3.70;;;3.40;;
13171;SDS011;6651;53.200;10.432;2023-08-01T04:06:32;3.70;;;3.08;;
13171;SDS011;6651;53.200;10.432;2023-08-01T04:08:58;3.78;;;3.40;;
13171;SDS011;6651;53.200;10.432;2023-08-01T04:11:25;5.60;;;3.65;;
13171;SDS011;6651;53.200;10.432;2023-08-01T04:13:51;4.13;;;3.45;;
13171;SDS011;6651;53.200;10.432;2023-08-01T04:16:17;6.22;;;3.80;;
13171;SDS011;6651;53.200;10.432;2023-08-01T04:18:42;4.05;;;3.53;;
13171;SDS011;6651;53.200;10.432;2023-08-01T04:21:08;5.03;;;3.55;;
13171;SDS011;6651;53.200;10.432;2023-08-01T04:23:34;4.25;;;3.60;;
13171;SDS011;6651;53.200;10.432;2023-08-01T04:25:59;3.75;;;3.28;;
13171;SDS011;6651;53.200;10.432;2023-08-01T04:28:25;4.07;;;3.30;;
13171;SDS011;6651;53.200;10.432;2023-08-01T04:30:51;5.90;;;3.67;;
13171;SDS011;6651;53.200;10.432;2023-08-01T04:33:17;4.22;;;3.72;;
13171;SDS011;6651;53.200;10.432;2023-08-01T04:35:43;4.97;;;3.70;;
13171;SDS011;6651;53.200;10.432;2023-08-01T04:38:09;4.95;;;3.60;;
13171;SDS011;6651;53.200;10.432;2023-08-01T04:40:37;4.70;;;3.50;;
13171;SDS011;6651;53.200;10.432;2023-08-01T04:43:03;4.07;;;3.50;;
13171;SDS011;6651;53.200;10.432;2023-08-01T04:45:29;3.90;;;3.30;;
13171;SDS011;6651;53.200;10.432;2023-08-01T04:47:54;3.80;;;3.05;;
13171;SDS011;6651;53.200;10.432;2023-08-01T04:50:20;3.67;;;3.38;;
13171;SDS011;6651;53.200;10.432;2023-08-01T04:52:45;6.93;;;3.58;;
13171;SDS011;6651;53.200;10.432;2023-08-01T04:55:11;6.70;;;3.50;;
13171;SDS011;6651;53.200;10.432;2023-08-01T04:57:37;4.65;;;3.60;;
13171;SDS011;6651;53.200;10.432;2023-08-01T05:00:03;4.68;;;3.22;;
13171;SDS011;6651;53.200;10.432;2023-08-01T05:02:29;4.18;;;3.78;;
13171;SDS011;6651;53.200;10.432;2023-08-01T05:04:55;4.07;;;3.70;;
13171;SDS011;6651;53.200;10.432;2023-08-01T05:07:20;4.10;;;3.70;;
13171;SDS011;6651;53.200;10.432;2023-08-01T05:09:46;4.95;;;3.50;;
13171;SDS011;6651;53.200;10.432;2023-08-01T05:12:12;4.13;;;3.55;;
13171;SDS011;6651;53.200;10.432;2023-08-01T05:14:37;3.80;;;3.50;;
13171;SDS011;6651;53.200;10.432;2023-08-01T05:17:03;5.50;;;3.80;;
13171;SDS011;6651;53.200;10.432;2023-08-01T05:19:29;4.35;;;3.63;;
13171;SDS011;6651;53.200;10.432;2023-08-01T05:21:55;3.33;;;3.13;;
13171;SDS011;6651;53.200;10.432;2023-08-01T05:24:20;3.92;;;3.63;;
13171;SDS011;6651;53.200;10.432;2023-08-01T05:26:46;4.35;;;3.42;;
13171;SDS011;6651;53.200;10.432;2023-08-01T05:29:12;4.32;;;3.80;;
13171;SDS011;6651;53.200;10.432;2023-08-01T05:31:38;4.25;;;3.83;;
13171;SDS011;6651;53.200;10.432;2023-08-01T05:34:03;5.10;;;4.00;;
13171;SDS011;6651;53.200;10.432;2023-08-01T05:36:29;4.47;;;4.05;;
13171;SDS011;6651;53.200;10.432;2023-08-01T05:38:55;4.35;;;3.95;;
13171;SDS011;6651;53.200;10.432;2023-08-01T05:41:21;4.88;;;4.15;;
13171;SDS011;6651;53.200;10.432;2023-08-01T05:43:48;5.78;;;4.10;;
13171;SDS011;6651;53.200;10.432;2023-08-01T05:46:14;5.70;;;4.82;;
13171;SDS011;6651;53.200;10.432;2023-08-01T05:48:40;5.75;;;4.70;;
13171;SDS011;6651;53.200;10.432;2023-08-01T05:51:06;5.78;;;4.60;;
13171;SDS011;6651;53.200;10.432;2023-08-01T05:53:31;6.00;;;4.95;;
13171;SDS011;6651;53.200;10.432;2023-08-01T05:55:57;6.28;;;5.03;;
13171;SDS011;6651;53.200;10.432;2023-08-01T05:58:23;9.00;;;5.20;;
13171;SDS011;6651;53.200;10.432;2023-08-01T06:00:48;6.45;;;5.00;;
13171;SDS011;6651;53.200;10.432;2023-08-01T06:03:14;5.68;;;5.18;;
13171;SDS011;6651;53.200;10.432;2023-08-01T06:05:41;9.23;;;5.47;;
13171;SDS011;6651;53.200;10.432;2023-08-01T06:08:07;6.70;;;6.07;;
13171;SDS011;6651;53.200;10.432;2023-08-01T06:10:33;7.95;;;6.80;;
13171;SDS011;6651;53.200;10.432;2023-08-01T06:12:59;8.82;;;6.70;;
13171;SDS011;6651;53.200;10.432;2023-08-01T06:15:25;10.18;;;7.10;;
13171;SDS011;6651;53.200;10.432;2023-08-01T06:17:50;9.13;;;7.10;;
13171;SDS011;6651;53.200;10.432;2023-08-01T06:20:16;7.45;;;6.40;;
13171;SDS011;6651;53.200;10.432;2023-08-01T06:22:42;9.38;;;6.78;;
13171;SDS011;6651;53.200;10.432;2023-08-01T06:25:08;7.45;;;6.65;;
13171;SDS011;6651;53.200;10.432;2023-08-01T06:27:34;9.65;;;6.53;;
13171;SDS011;6651;53.200;10.432;2023-08-01T06:29:59;9.23;;;6.70;;
13171;SDS011;6651;53.200;10.432;2023-08-01T06:32:25;8.70;;;6.97;;
13171;SDS011;6651;53.200;10.432;2023-08-01T06:34:51;8.23;;;6.55;;
13171;SDS011;6651;53.200;10.432;2023-08-01T06:37:17;7.82;;;6.10;;
13171;SDS011;6651;53.200;10.432;2023-08-01T06:39:42;7.72;;;6.10;;
13171;SDS011;6651;53.200;10.432;2023-08-01T06:42:08;9.98;;;6.70;;
13171;SDS011;6651;53.200;10.432;2023-08-01T06:44:34;8.38;;;6.30;;
13171;SDS011;6651;53.200;10.432;2023-08-01T06:47:00;10.02;;;6.50;;
13171;SDS011;6651;53.200;10.432;2023-08-01T06:49:25;8.77;;;6.45;;
13171;SDS011;6651;53.200;10.432;2023-08-01T06:51:51;8.60;;;6.32;;
13171;SDS011;6651;53.200;10.432;2023-08-01T06:54:16;10.13;;;6.80;;
13171;SDS011;6651;53.200;10.432;2023-08-01T06:56:42;10.18;;;6.40;;
13171;SDS011;6651;53.200;10.432;2023-08-01T06:59:12;7.45;;;6.45;;
13171;SDS011;6651;53.200;10.432;2023-08-01T07:01:39;8.52;;;6.72;;
13171;SDS011;6651;53.200;10.432;2023-08-01T07:04:08;7.93;;;6.75;;
13171;SDS011;6651;53.200;10.432;2023-08-01T07:06:36;10.10;;;7.10;;
13171;SDS011;6651;53.200;10.432;2023-08-01T07:09:02;10.10;;;6.72;;
13171;SDS011;6651;53.200;10.432;2023-08-01T07:11:28;8.35;;;6.40;;
13171;SDS011;6651;53.200;10.432;2023-08-01T07:13:54;8.15;;;7.10;;
13171;SDS011;6651;53.200;10.432;2023-08-01T07:16:19;8.95;;;7.00;;
13171;SDS011;6651;53.200;10.432;2023-08-01T07:18:45;8.40;;;6.82;;
13171;SDS011;6651;53.200;10.432;2023-08-01T07:21:11;7.78;;;6.78;;
13171;SDS011;6651;53.200;10.432;2023-08-01T07:23:37;9.40;;;6.78;;
13171;SDS011;6651;53.200;10.432;2023-08-01T07:26:02;10.00;;;7.22;;
13171;SDS011;6651;53.200;10.432;2023-08-01T07:28:28;9.07;;;7.20;;
13171;SDS011;6651;53.200;10.432;2023-08-01T07:30:58;8.55;;;7.22;;
13171;SDS011;6651;53.200;10.432;2023-08-01T07:33:28;6.78;;;5.47;;
13171;SDS011;6651;53.200;10.432;2023-08-01T07:35:54;8.10;;;4.47;;
13171;SDS011;6651;53.200;10.432;2023-08-01T07:38:19;6.55;;;4.50;;
13171;SDS011;6651;53.200;10.432;2023-08-01T07:40:45;7.30;;;4.07;;
13171;SDS011;6651;53.200;10.432;2023-08-01T07:43:11;5.93;;;3.90;;
13171;SDS011;6651;53.200;10.432;2023-08-01T07:45:38;7.07;;;3.63;;
13171;SDS011;6651;53.200;10.432;2023-08-01T07:48:04;4.97;;;3.33;;
13171;SDS011;6651;53.200;10.432;2023-08-01T07:50:29;4.75;;;3.30;;
13171;SDS011;6651;53.200;10.432;2023-08-01T07:52:55;5.30;;;3.47;;
13171;SDS011;6651;53.200;10.432;2023-08-01T07:55:21;7.00;;;3.42;;
13171;SDS011;6651;53.200;10.432;2023-08-01T07:57:50;6.70;;;3.47;;
13171;SDS011;6651;53.200;10.432;2023-08-01T08:00:15;6.57;;;3.47;;
13171;SDS011;6651;53.200;10.432;2023-08-01T08:02:41;6.55;;;3.67;;
13171;SDS011;6651;53.200;10.432;2023-08-01T08:05:08;4.50;;;3.40;;
13171;SDS011;6651;53.200;10.432;2023-08-01T08:07:35;8.13;;;3.90;;
13171;SDS011;6651;53.200;10.432;2023-08-01T08:10:01;7.10;;;3.88;;
13171;SDS011;6651;53.200;10.432;2023-08-01T08:12:28;7.22;;;4.22;;
13171;SDS011;6651;53.200;10.432;2023-08-01T08:14:53;7.78;;;4.22;;
13171;SDS011;6651;53.200;10.432;2023-08-01T08:17:19;4.78;;;3.70;;
13171;SDS011;6651;53.200;10.432;2023-08-01T08:19:45;7.63;;;4.38;;
13171;SDS011;6651;53.200;10.432;2023-08-01T08:22:11;6.43;;;4.47;;
13171;SDS011;6651;53.200;10.432;2023-08-01T08:24:36;6.28;;;4.72;;
13171;SDS011;6651;53.200;10.432;2023-08-01T08:27:02;6.18;;;5.13;;
13171;SDS011;6651;53.200;10.432;2023-08-01T08:29:28;9.93;;;5.05;;
13171;SDS011;6651;53.200;10.432;2023-08-01T08:31:55;7.97;;;4.68;;
13171;SDS011;6651;53.200;10.432;2023-08-01T08:34:21;8.23;;;5.15;;
13171;SDS011;6651;53.200;10.432;2023-08-01T08:36:46;8.50;;;5.05;;
13171;SDS011;6651;53.200;10.432;2023-08-01T08:39:12;8.65;;;4.63;;
13171;SDS011;6651;53.200;10.432;2023-08-01T08:41:48;9.48;;;5.18;;
13171;SDS011;6651;53.200;10.432;2023-08-01T08:44:17;10.32;;;5.18;;
13171;SDS011;6651;53.200;10.432;2023-08-01T08:46:47;8.30;;;5.25;;
13171;SDS011;6651;53.200;10.432;2023-08-01T08:49:18;7.30;;;5.25;;
13171;SDS011;6651;53.200;10.432;2023-08-01T08:51:48;8.32;;;4.68;;
13171;SDS011;6651;53.200;10.432;2023-08-01T08:54:15;8.85;;;4.70;;
13171;SDS011;6651;53.200;10.432;2023-08-01T08:56:41;8.02;;;5.15;;
13171;SDS011;6651;53.200;10.432;2023-08-01T08:59:07;9.40;;;5.07;;
13171;SDS011;6651;53.200;10.432;2023-08-01T09:01:35;8.35;;;4.97;;
13171;SDS011;6651;53.200;10.432;2023-08-01T09:04:04;7.53;;;4.40;;
13171;SDS011;6651;53.200;10.432;2023-08-01T09:06:44;6.90;;;4.28;;
13171;SDS011;6651;53.200;10.432;2023-08-01T09:09:12;6.85;;;4.45;;
13171;SDS011;6651;53.200;10.432;2023-08-01T09:11:48;5.55;;;3.95;;
13171;SDS011;6651;53.200;10.432;2023-08-01T09:14:15;5.97;;;4.28;;
13171;SDS011;6651;53.200;10.432;2023-08-01T09:16:41;5.95;;;4.00;;
13171;SDS011;6651;53.200;10.432;2023-08-01T09:19:08;9.63;;;4.03;;
13171;SDS011;6651;53.200;10.432;2023-08-01T09:21:35;5.53;;;4.22;;
13171;SDS011;6651;53.200;10.432;2023-08-01T09:26:36;8.77;;;4.38;;
13171;SDS011;6651;53.200;10.432;2023-08-01T09:29:02;6.63;;;3.60;;
13171;SDS011;6651;53.200;10.432;2023-08-01T09:31:38;6.03;;;3.95;;
13171;SDS011;6651;53.200;10.432;2023-08-01T09:34:06;7.90;;;3.85;;
13171;SDS011;6651;53.200;10.432;2023-08-01T09:36:46;7.13;;;3.95;;
13171;SDS011;6651;53.200;10.432;2023-08-01T09:39:19;5.80;;;3.88;;
13171;SDS011;6651;53.200;10.432;2023-08-01T09:41:46;5.88;;;3.88;;
13171;SDS011;6651;53.200;10.432;2023-08-01T09:44:23;8.70;;;4.32;;
13171;SDS011;6651;53.200;10.432;2023-08-01T09:47:01;7.50;;;4.00;;
13171;SDS011;6651;53.200;10.432;2023-08-01T09:49:32;6.03;;;3.70;;
13171;SDS011;6651;53.200;10.432;2023-08-01T09:51:58;5.50;;;3.35;;
13171;SDS011;6651;53.200;10.432;2023-08-01T09:54:24;4.55;;;2.97;;
13171;SDS011;6651;53.200;10.432;2023-08-01T09:56:51;4.05;;;2.50;;
13171;SDS011;6651;53.200;10.432;2023-08-01T09:59:19;5.13;;;2.70;;
13171;SDS011;6651;53.200;10.432;2023-08-01T10:01:49;4.28;;;2.55;;
13171;SDS011;6651;53.200;10.432;2023-08-01T10:04:37;2.70;;;2.10;;
13171;SDS011;6651;53.200;10.432;2023-08-01T10:07:07;3.60;;;2.00;;
13171;SDS011;6651;53.200;10.432;2023-08-01T10:09:36;3.05;;;1.90;;
13171;SDS011;6651;53.200;10.432;2023-08-01T10:12:03;1.77;;;1.67;;
13171;SDS011;6651;53.200;10.432;2023-08-01T10:14:33;2.83;;;1.88;;
13171;SDS011;6651;53.200;10.432;2023-08-01T10:17:01;2.15;;;1.88;;
13171;SDS011;6651;53.200;10.432;2023-08-01T10:19:27;2.53;;;1.80;;
13171;SDS011;6651;53.200;10.432;2023-08-01T10:21:56;3.67;;;1.98;;
13171;SDS011;6651;53.200;10.432;2023-08-01T10:24:23;2.00;;;1.77;;
13171;SDS011;6651;53.200;10.432;2023-08-01T10:26:49;3.20;;;1.70;;
13171;SDS011;6651;53.200;10.432;2023-08-01T10:29:15;2.95;;;1.65;;
13171;SDS011;6651;53.200;10.432;2023-08-01T10:31:50;2.55;;;1.70;;
13171;SDS011;6651;53.200;10.432;2023-08-01T10:34:20;2.63;;;1.55;;
13171;SDS011;6651;53.200;10.432;2023-08-01T10:36:55;2.35;;;1.67;;
13171;SDS011;6651;53.200;10.432;2023-08-01T10:39:25;1.70;;;1.45;;
13171;SDS011;6651;53.200;10.432;2023-08-01T10:42:02;3.42;;;1.95;;
13171;SDS011;6651;53.200;10.432;2023-08-01T10:44:30;2.83;;;1.83;;
13171;SDS011;6651;53.200;10.432;2023-08-01T10:47:02;2.97;;;2.20;;
13171;SDS011;6651;53.200;10.432;2023-08-01T10:49:34;3.10;;;2.00;;
13171;SDS011;6651;53.200;10.432;2023-08-01T10:52:03;3.72;;;2.00;;
13171;SDS011;6651;53.200;10.432;2023-08-01T10:55:10;2.20;;;1.83;;
13171;SDS011;6651;53.200;10.432;2023-08-01T10:57:38;3.42;;;1.98;;
13171;SDS011;6651;53.200;10.432;2023-08-01T11:00:11;3.42;;;2.10;;
13171;SDS011;6651;53.200;10.432;2023-08-01T11:02:48;3.08;;;1.83;;
13171;SDS011;6651;53.200;10.432;2023-08-01T11:05:15;4.93;;;1.90;;
13171;SDS011;6651;53.200;10.432;2023-08-01T11:07:41;4.53;;;2.15;;
13171;SDS011;6651;53.200;10.432;2023-08-01T11:10:10;2.55;;;1.85;;
13171;SDS011;6651;53.200;10.432;2023-08-01T11:12:38;3.28;;;1.88;;
13171;SDS011;6651;53.200;10.432;2023-08-01T11:15:06;2.80;;;1.90;;
13171;SDS011;6651;53.200;10.432;2023-08-01T11:17:34;3.97;;;2.15;;
13171;SDS011;6651;53.200;10.432;2023-08-01T11:20:02;3.55;;;1.95;;
13171;SDS011;6651;53.200;10.432;2023-08-01T11:22:29;2.78;;;1.70;;
13171;SDS011;6651;53.200;10.432;2023-08-01T11:24:55;3.35;;;1.98;;
13171;SDS011;6651;53.200;10.432;2023-08-01T11:27:21;2.17;;;1.75;;
13171;SDS011;6651;53.200;10.432;2023-08-01T11:29:46;3.70;;;1.92;;
13171;SDS011;6651;53.200;10.432;2023-08-01T11:32:12;4.30;;;1.90;;
13171;SDS011;6651;53.200;10.432;2023-08-01T11:34:41;3.45;;;1.50;;
13171;SDS011;6651;53.200;10.432;2023-08-01T11:37:11;1.75;;;1.48;;
13171;SDS011;6651;53.200;10.432;2023-08-01T11:39:37;1.50;;;1.40;;
13171;SDS011;6651;53.200;10.432;2023-08-01T11:42:04;1.77;;;1.55;;
13171;SDS011;6651;53.200;10.432;2023-08-01T11:44:30;2.70;;;1.70;;
13171;SDS011;6651;53.200;10.432;2023-08-01T11:46:55;3.13;;;1.75;;
13171;SDS011;6651;53.200;10.432;2023-08-01T11:49:21;2.42;;;1.75;;
13171;SDS011;6651;53.200;10.432;2023-08-01T11:51:48;3.05;;;1.75;;
13171;SDS011;6651;53.200;10.432;2023-08-01T11:54:14;2.80;;;1.90;;
13171;SDS011;6651;53.200;10.432;2023-08-01T11:56:40;3.00;;;1.50;;
13171;SDS011;6651;53.200;10.432;2023-08-01T11:59:16;2.90;;;1.70;;
13171;SDS011;6651;53.200;10.432;2023-08-01T12:01:46;1.90;;;1.50;;
13171;SDS011;6651;53.200;10.432;2023-08-01T12:04:26;2.40;;;1.50;;
13171;SDS011;6651;53.200;10.432;2023-08-01T12:06:53;5.00;;;1.80;;
13171;SDS011;6651;53.200;10.432;2023-08-01T12:09:19;3.97;;;1.75;;
13171;SDS011;6651;53.200;10.432;2023-08-01T12:11:45;3.00;;;1.45;;
13171;SDS011;6651;53.200;10.432;2023-08-01T12:14:14;5.28;;;1.77;;
13171;SDS011;6651;53.200;10.432;2023-08-01T12:16:41;3.28;;;1.67;;
13171;SDS011;6651;53.200;10.432;2023-08-01T12:19:12;3.38;;;1.70;;
13171;SDS011;6651;53.200;10.432;2023-08-01T12:21:43;4.82;;;1.90;;
13171;SDS011;6651;53.200;10.432;2023-08-01T12:24:09;3.33;;;1.95;;
13171;SDS011;6651;53.200;10.432;2023-08-01T12:26:35;3.67;;;2.00;;
13171;SDS011;6651;53.200;10.432;2023-08-01T12:29:00;3.15;;;2.00;;
13171;SDS011;6651;53.200;10.432;2023-08-01T12:31:26;4.03;;;1.95;;
13171;SDS011;6651;53.200;10.432;2023-08-01T12:33:53;2.65;;;2.00;;
13171;SDS011;6651;53.200;10.432;2023-08-01T12:36:19;2.83;;;1.80;;
13171;SDS011;6651;53.200;10.432;2023-08-01T12:38:45;3.53;;;1.88;;
13171;SDS011;6651;53.200;10.432;2023-08-01T12:41:11;2.30;;;1.63;;
13171;SDS011;6651;53.200;10.432;2023-08-01T12:43:37;4.03;;;1.95;;
13171;SDS011;6651;53.200;10.432;2023-08-01T12:46:02;4.53;;;1.92;;
13171;SDS011;6651;53.200;10.432;2023-08-01T12:48:28;3.20;;;1.90;;
13171;SDS011;6651;53.200;10.432;2023-08-01T12:50:54;4.28;;;2.38;;
13171;SDS011;6651;53.200;10.432;2023-08-01T12:53:20;2.83;;;1.90;;
13171;SDS011;6651;53.200;10.432;2023-08-01T12:55:47;3.88;;;2.10;;
13171;SDS011;6651;53.200;10.432;2023-08-01T12:58:14;2.38;;;1.80;;
13171;SDS011;6651;53.200;10.432;2023-08-01T13:00:40;2.25;;;1.90;;
13171;SDS011;6651;53.200;10.432;2023-08-01T13:03:07;3.85;;;2.22;;
13171;SDS011;6651;53.200;10.432;2023-08-01T13:05:34;3.17;;;2.13;;
13171;SDS011;6651;53.200;10.432;2023-08-01T13:08:04;3.25;;;1.90;;
13171;SDS011;6651;53.200;10.432;2023-08-01T13:10:30;1.83;;;1.70;;
13171;SDS011;6651;53.200;10.432;2023-08-01T13:12:57;2.22;;;1.83;;
13171;SDS011;6651;53.200;10.432;2023-08-01T13:15:23;3.08;;;1.75;;
13171;SDS011;6651;53.200;10.432;2023-08-01T13:17:49;3.25;;;1.80;;
13171;SDS011;6651;53.200;10.432;2023-08-01T13:20:15;2.53;;;1.83;;
13171;SDS011;6651;53.200;10.432;2023-08-01T13:22:41;3.33;;;1.80;;
13171;SDS011;6651;53.200;10.432;2023-08-01T13:25:08;4.88;;;2.08;;
13171;SDS011;6651;53.200;10.432;2023-08-01T13:27:34;5.03;;;2.10;;
13171;SDS011;6651;53.200;10.432;2023-08-01T13:30:01;3.58;;;2.00;;
13171;SDS011;6651;53.200;10.432;2023-08-01T13:32:27;3.55;;;2.20;;
13171;SDS011;6651;53.200;10.432;2023-08-01T13:34:53;3.25;;;1.98;;
13171;SDS011;6651;53.200;10.432;2023-08-01T13:37:19;5.10;;;1.92;;
13171;SDS011;6651;53.200;10.432;2023-08-01T13:39:44;3.08;;;1.90;;
13171;SDS011;6651;53.200;10.432;2023-08-01T13:42:11;3.58;;;2.10;;
13171;SDS011;6651;53.200;10.432;2023-08-01T13:44:37;3.20;;;2.20;;
13171;SDS011;6651;53.200;10.432;2023-08-01T13:47:03;3.45;;;1.80;;
13171;SDS011;6651;53.200;10.432;2023-08-01T13:49:29;4.20;;;2.15;;
13171;SDS011;6651;53.200;10.432;2023-08-01T13:51:55;2.85;;;2.00;;
13171;SDS011;6651;53.200;10.432;2023-08-01T13:54:21;3.17;;;1.80;;
13171;SDS011;6651;53.200;10.432;2023-08-01T13:56:46;7.95;;;2.33;;
13171;SDS011;6651;53.200;10.432;2023-08-01T13:59:12;4.35;;;1.83;;
13171;SDS011;6651;53.200;10.432;2023-08-01T14:01:38;3.38;;;1.80;;
13171;SDS011;6651;53.200;10.432;2023-08-01T14:04:04;2.58;;;2.00;;
13171;SDS011;6651;53.200;10.432;2023-08-01T14:06:30;4.50;;;2.00;;
13171;SDS011;6651;53.200;10.432;2023-08-01T14:08:56;2.65;;;1.90;;
13171;SDS011;6651;53.200;10.432;2023-08-01T14:11:21;3.53;;;2.00;;
13171;SDS011;6651;53.200;10.432;2023-08-01T14:13:48;2.58;;;1.70;;
13171;SDS011;6651;53.200;10.432;2023-08-01T14:16:14;3.25;;;1.90;;
13171;SDS011;6651;53.200;10.432;2023-08-01T14:18:41;4.18;;;2.05;;
13171;SDS011;6651;53.200;10.432;2023-08-01T14:21:07;3.60;;;1.70;;
13171;SDS011;6651;53.200;10.432;2023-08-01T14:23:33;1.88;;;1.38;;
13171;SDS011;6651;53.200;10.432;2023-08-01T14:25:59;1.88;;;1.40;;
13171;SDS011;6651;53.200;10.432;2023-08-01T14:28:24;2.45;;;1.50;;
13171;SDS011;6651;53.200;10.432;2023-08-01T14:30:50;1.65;;;1.55;;
13171;SDS011;6651;53.200;10.432;2023-08-01T14:33:16;2.38;;;1.60;;
13171;SDS011;6651;53.200;10.432;2023-08-01T14:35:42;3.55;;;1.80;;
13171;SDS011;6651;53.200;10.432;2023-08-01T14:38:07;2.25;;;1.45;;
13171;SDS011;6651;53.200;10.432;2023-08-01T14:40:35;2.13;;;1.90;;
13171;SDS011;6651;53.200;10.432;2023-08-01T14:43:01;3.75;;;2.00;;
13171;SDS011;6651;53.200;10.432;2023-08-01T14:45:27;2.00;;;1.80;;
13171;SDS011;6651;53.200;10.432;2023-08-01T14:47:52;2.70;;;1.60;;
13171;SDS011;6651;53.200;10.432;2023-08-01T14:50:18;2.88;;;1.90;;